createdAt,value
2019-06-27T03:27:56.837Z,17.91
2019-06-27T03:28:56.837Z,18.03
2019-06-27T03:29:57.588Z,17.97
2019-06-27T03:30:57.540Z,17.99
2019-06-27T03:34:12.607Z,17.95
2019-06-27T03:35:12.216Z,17.95
2019-06-27T03:36:11.737Z,17.97
2019-06-27T03:37:13.025Z,17.97
2019-06-27T03:41:12.242Z,17.88
2019-06-27T03:44:57.309Z,17.87
2019-06-27T03:45:56.189Z,18.00
2019-06-27T03:46:56.516Z,17.95
2019-06-27T03:47:56.999Z,17.94
2019-06-27T03:51:01.423Z,17.95
2019-06-27T03:52:01.353Z,17.99
2019-06-27T03:53:01.234Z,17.95
2019-06-27T03:54:01.662Z,18.00
2019-06-27T03:55:01.423Z,17.97
2019-06-27T03:56:00.883Z,18.00
2019-06-27T03:57:01.217Z,17.99
2019-06-27T03:58:01.164Z,18.03
2019-06-27T03:59:12.346Z,18.10
2019-06-27T04:00:00.310Z,18.13
2019-06-27T04:01:00.224Z,18.10
2019-06-27T04:02:00.205Z,18.10
2019-06-27T04:03:00.278Z,18.12
2019-06-27T04:04:00.240Z,18.13
2019-06-27T04:05:00.254Z,18.13
2019-06-27T04:06:00.312Z,18.24
2019-06-27T04:07:00.370Z,18.13
2019-06-27T04:08:00.339Z,18.19
2019-06-27T04:09:00.389Z,18.12
2019-06-27T04:10:00.350Z,18.27
2019-06-27T04:11:00.378Z,18.13
2019-06-27T04:12:00.410Z,18.10
2019-06-27T04:13:00.409Z,18.19
2019-06-27T04:14:00.482Z,18.19
2019-06-27T04:15:00.536Z,18.15
2019-06-27T04:16:00.458Z,18.17
2019-06-27T04:17:00.478Z,18.06
2019-06-27T04:18:00.504Z,18.10
2019-06-27T04:19:00.568Z,18.07
2019-06-27T04:20:00.598Z,18.17
2019-06-27T04:21:00.575Z,18.19
2019-06-27T04:22:00.586Z,18.28
2019-06-27T04:23:00.620Z,18.19
2019-06-27T04:24:00.630Z,18.09
2019-06-27T04:25:00.713Z,18.13
2019-06-27T04:26:00.644Z,18.13
2019-06-27T04:27:00.669Z,18.04
2019-06-27T04:28:00.949Z,17.95
2019-06-27T04:29:00.699Z,18.02
2019-06-27T04:30:00.780Z,17.94
2019-06-27T04:31:00.826Z,18.04
2019-06-27T04:32:00.759Z,18.13
2019-06-27T04:33:00.821Z,18.15
2019-06-27T04:34:00.819Z,18.18
2019-06-27T04:35:00.814Z,18.00
2019-06-27T04:36:00.857Z,18.15
2019-06-27T04:37:00.850Z,18.19
2019-06-27T04:38:00.920Z,18.31
2019-06-27T04:39:00.975Z,18.31
2019-06-27T04:40:00.906Z,18.27
2019-06-27T04:41:00.939Z,18.31
2019-06-27T04:42:01.035Z,18.43
2019-06-27T04:43:05.329Z,18.55
2019-06-27T04:44:01.002Z,18.46
2019-06-27T04:45:01.003Z,18.50
2019-06-27T04:46:01.020Z,18.52
2019-06-27T04:47:01.089Z,18.52
2019-06-27T04:48:01.105Z,18.44
2019-06-27T04:49:01.081Z,18.62
2019-06-27T04:50:01.092Z,18.64
2019-06-27T04:51:01.119Z,18.61
2019-06-27T04:52:01.142Z,18.67
2019-06-27T04:53:01.224Z,18.68
2019-06-27T04:54:01.173Z,18.70
2019-06-27T04:55:03.579Z,18.83
2019-06-27T04:56:01.286Z,18.80
2019-06-27T04:57:01.258Z,18.82
2019-06-27T04:58:01.258Z,18.83
2019-06-27T04:59:01.348Z,18.84
2019-06-27T05:00:01.285Z,18.91
2019-06-27T05:01:01.316Z,19.01
2019-06-27T05:02:01.326Z,18.97
2019-06-27T05:03:01.345Z,18.98
2019-06-27T05:04:01.414Z,18.98
2019-06-27T05:05:01.376Z,18.98
2019-06-27T05:06:01.465Z,18.92
2019-06-27T05:07:01.520Z,18.94
2019-06-27T05:08:01.449Z,18.97
2019-06-27T05:09:01.489Z,18.92
2019-06-27T05:10:01.480Z,18.99
2019-06-27T05:11:01.500Z,18.97
2019-06-27T05:12:01.534Z,18.90
2019-06-27T05:13:01.624Z,18.97
2019-06-27T05:14:01.552Z,18.97
2019-06-27T05:15:01.573Z,18.98
2019-06-27T05:16:01.601Z,19.10
2019-06-27T05:17:01.623Z,19.14
2019-06-27T05:18:01.635Z,19.17
2019-06-27T05:19:01.755Z,19.15
2019-06-27T05:20:03.232Z,19.14
2019-06-27T05:21:01.701Z,19.17
2019-06-27T05:22:01.704Z,19.17
2019-06-27T05:23:01.783Z,19.28
2019-06-27T05:24:01.745Z,19.15
2019-06-27T05:25:01.792Z,19.21
2019-06-27T05:26:01.851Z,19.21
2019-06-27T05:27:01.805Z,19.25
2019-06-27T05:28:01.846Z,19.35
2019-06-27T05:29:01.883Z,19.33
2019-06-27T05:30:09.175Z,19.32
2019-06-27T05:31:01.944Z,19.46
2019-06-27T05:32:01.906Z,19.43
2019-06-27T05:33:01.980Z,19.43
2019-06-27T05:34:02.021Z,19.47
2019-06-27T05:35:02.009Z,19.54
2019-06-27T05:36:02.644Z,19.58
2019-06-27T05:37:02.023Z,19.58
2019-06-27T05:38:02.014Z,19.55
2019-06-27T05:39:02.080Z,19.60
2019-06-27T05:40:02.176Z,19.70
2019-06-27T05:41:02.142Z,19.90
2019-06-27T05:42:02.239Z,20.05
2019-06-27T05:43:02.174Z,20.08
2019-06-27T05:44:02.131Z,20.15
2019-06-27T05:45:02.158Z,20.24
2019-06-27T05:46:02.266Z,20.27
2019-06-27T05:47:02.418Z,20.25
2019-06-27T05:48:02.257Z,20.27
2019-06-27T05:49:02.391Z,20.38
2019-06-27T05:50:02.370Z,20.28
2019-06-27T05:51:02.481Z,20.34
2019-06-27T05:52:02.387Z,20.33
2019-06-27T05:53:04.115Z,20.30
2019-06-27T05:54:02.383Z,20.31
2019-06-27T05:55:02.469Z,20.34
2019-06-27T05:56:02.613Z,20.31
2019-06-27T05:57:02.458Z,20.41
2019-06-27T05:58:02.475Z,20.51
2019-06-27T05:59:02.543Z,20.59
2019-06-27T06:00:02.487Z,20.83
2019-06-27T06:01:02.488Z,21.16
2019-06-27T06:02:02.538Z,21.41
2019-06-27T06:03:02.580Z,21.51
2019-06-27T06:04:02.565Z,21.69
2019-06-27T06:05:02.607Z,21.64
2019-06-27T06:06:02.579Z,21.64
2019-06-27T06:07:02.870Z,21.59
2019-06-27T06:08:03.337Z,21.66
2019-06-27T06:09:05.309Z,21.60
2019-06-27T06:10:02.696Z,21.67
2019-06-27T06:11:02.743Z,21.81
2019-06-27T06:12:02.719Z,21.81
2019-06-27T06:13:02.800Z,22.10
2019-06-27T06:14:02.790Z,22.47
2019-06-27T06:15:02.859Z,22.71
2019-06-27T06:16:02.803Z,22.99
2019-06-27T06:17:03.714Z,22.84
2019-06-27T06:18:02.895Z,23.14
2019-06-27T06:19:02.862Z,23.89
2019-06-27T06:20:02.947Z,23.85
2019-06-27T06:21:03.640Z,23.58
2019-06-27T06:22:03.126Z,23.57
2019-06-27T06:23:03.499Z,23.90
2019-06-27T06:24:02.966Z,24.01
2019-06-27T06:25:03.115Z,24.41
2019-06-27T06:26:03.454Z,25.09
2019-06-27T06:27:03.955Z,25.72
2019-06-27T06:28:03.056Z,25.86
2019-06-27T06:29:03.862Z,26.36
2019-06-27T06:30:03.264Z,26.72
2019-06-27T06:31:03.287Z,27.26
2019-06-27T06:32:06.165Z,27.99
2019-06-27T06:33:03.500Z,27.77
2019-06-27T06:34:03.273Z,27.06
2019-06-27T06:35:03.269Z,27.70
2019-06-27T06:36:03.255Z,27.98
2019-06-27T06:37:03.337Z,27.85
2019-06-27T06:38:03.309Z,27.73
2019-06-27T06:39:03.351Z,28.07
2019-06-27T06:40:03.448Z,27.64
2019-06-27T06:41:04.049Z,27.50
2019-06-27T06:46:28.859Z,27.17
2019-06-27T06:48:27.292Z,26.96
2019-06-27T06:49:25.997Z,27.66
2019-06-27T06:50:24.904Z,28.29
2019-06-27T06:52:28.056Z,28.43
2019-06-27T06:53:37.695Z,28.84
2019-06-27T11:01:22.242Z,26.99
2019-06-27T11:02:08.162Z,26.87
2019-06-27T11:03:15.327Z,26.49
